createdAt,value
2022-07-31T00:00:08.577Z,0.00
2022-07-31T00:01:08.508Z,0.00
2022-07-31T00:02:08.490Z,0.00
2022-07-31T00:03:08.619Z,0.00
2022-07-31T00:04:08.538Z,0.00
2022-07-31T00:05:08.575Z,0.00
2022-07-31T00:06:08.652Z,0.00
2022-07-31T00:07:08.430Z,0.00
2022-07-31T00:08:08.476Z,0.00
2022-07-31T00:09:45.365Z,0.00
2022-07-31T00:10:09.419Z,0.00
2022-07-31T00:11:08.401Z,0.00
2022-07-31T00:12:08.370Z,0.00
2022-07-31T00:13:08.362Z,0.00
2022-07-31T00:14:08.461Z,0.00
2022-07-31T00:15:08.351Z,0.00
2022-07-31T00:16:08.379Z,0.00
2022-07-31T00:17:08.323Z,0.00
2022-07-31T00:18:08.313Z,0.00
2022-07-31T00:19:08.312Z,0.00
2022-07-31T00:20:08.321Z,0.00
2022-07-31T00:21:08.280Z,0.00
2022-07-31T00:22:08.330Z,0.00
2022-07-31T00:23:08.263Z,0.00
2022-07-31T00:24:08.287Z,0.00
2022-07-31T00:25:08.244Z,0.00
2022-07-31T00:26:08.244Z,0.00
2022-07-31T00:27:08.215Z,0.00
2022-07-31T00:28:08.270Z,0.00
2022-07-31T00:29:08.199Z,0.00
2022-07-31T00:30:08.270Z,0.00
2022-07-31T00:31:08.188Z,0.00
2022-07-31T00:32:08.244Z,0.00
2022-07-31T00:33:08.155Z,0.00
2022-07-31T00:34:08.423Z,0.00
2022-07-31T00:35:08.130Z,0.00
2022-07-31T00:36:08.128Z,0.00
2022-07-31T00:37:08.109Z,0.00
2022-07-31T00:38:26.361Z,0.00
2022-07-31T00:39:09.107Z,0.00
2022-07-31T00:40:08.090Z,0.00
2022-07-31T00:41:08.069Z,0.00
2022-07-31T00:42:08.110Z,0.00
2022-07-31T00:43:08.040Z,0.00
2022-07-31T00:44:09.768Z,0.00
2022-07-31T00:45:08.074Z,0.00
2022-07-31T00:46:08.185Z,0.00
2022-07-31T00:47:09.002Z,0.00
2022-07-31T00:48:08.006Z,0.00
2022-07-31T00:49:08.022Z,0.00
2022-07-31T00:50:08.001Z,0.00
2022-07-31T00:51:07.954Z,0.00
2022-07-31T00:52:07.987Z,0.00
2022-07-31T00:53:07.935Z,0.00
2022-07-31T00:54:08.001Z,0.00
2022-07-31T00:55:07.925Z,0.00
2022-07-31T00:56:08.055Z,0.00
2022-07-31T00:57:07.885Z,0.00
2022-07-31T00:58:07.907Z,0.00
2022-07-31T00:59:07.876Z,0.00
2022-07-31T01:00:07.976Z,0.00
2022-07-31T01:01:07.896Z,0.00
2022-07-31T01:02:07.908Z,0.00
2022-07-31T01:03:07.827Z,0.00
2022-07-31T01:04:07.897Z,0.00
2022-07-31T01:05:08.797Z,0.00
2022-07-31T01:06:07.886Z,0.00
2022-07-31T01:07:07.778Z,0.00
2022-07-31T01:08:07.848Z,0.00
2022-07-31T01:09:07.762Z,0.00
2022-07-31T01:10:07.828Z,0.00
2022-07-31T01:11:07.729Z,0.00
2022-07-31T01:12:07.897Z,0.00
2022-07-31T01:13:07.756Z,0.00
2022-07-31T01:14:07.770Z,0.00
2022-07-31T01:15:07.693Z,0.00
2022-07-31T01:16:07.808Z,0.00
2022-07-31T01:17:07.668Z,0.00
2022-07-31T01:18:07.774Z,0.00
2022-07-31T01:19:07.653Z,0.00
2022-07-31T01:20:07.737Z,0.00
2022-07-31T01:21:07.623Z,0.00
2022-07-31T01:22:07.642Z,0.00
2022-07-31T01:23:08.603Z,0.00
2022-07-31T01:24:07.616Z,0.00
2022-07-31T01:25:07.593Z,0.00
2022-07-31T01:26:07.693Z,0.00
2022-07-31T01:27:07.565Z,0.00
2022-07-31T01:28:07.566Z,0.00
2022-07-31T01:29:07.537Z,0.00
2022-07-31T01:30:07.607Z,0.00
2022-07-31T01:32:08.648Z,0.00
2022-07-31T01:33:07.497Z,0.00
2022-07-31T01:34:07.536Z,0.00
2022-07-31T01:35:07.487Z,0.00
2022-07-31T01:36:07.490Z,0.00
2022-07-31T01:37:07.451Z,0.00
2022-07-31T01:38:07.464Z,0.00
2022-07-31T01:39:07.430Z,0.00
2022-07-31T01:40:07.491Z,0.00
2022-07-31T01:41:07.409Z,0.00
2022-07-31T01:42:07.449Z,0.00
2022-07-31T01:43:07.399Z,0.00
2022-07-31T01:44:07.473Z,0.00
2022-07-31T01:45:08.380Z,0.00
2022-07-31T01:46:07.464Z,0.00
2022-07-31T01:47:07.351Z,0.00
2022-07-31T01:48:07.344Z,0.00
2022-07-31T01:49:07.438Z,0.00
2022-07-31T01:50:07.452Z,0.00
2022-07-31T01:51:07.301Z,0.00
2022-07-31T01:52:07.644Z,0.00
2022-07-31T01:53:07.293Z,0.00
2022-07-31T01:54:07.314Z,0.00
2022-07-31T01:55:07.271Z,0.00
2022-07-31T01:56:07.336Z,0.00
2022-07-31T01:57:07.242Z,0.00
2022-07-31T01:58:07.423Z,0.00
2022-07-31T01:59:20.620Z,0.00
2022-07-31T02:00:33.238Z,0.00
2022-07-31T02:01:08.287Z,0.00
2022-07-31T02:02:09.719Z,0.00
2022-07-31T02:03:09.651Z,0.00
2022-07-31T02:04:07.236Z,0.00
2022-07-31T02:05:07.259Z,0.00
2022-07-31T02:06:07.243Z,0.00
2022-07-31T02:07:07.137Z,0.00
2022-07-31T02:08:07.195Z,0.00
2022-07-31T02:09:07.107Z,0.00
2022-07-31T02:10:07.981Z,0.00
2022-07-31T02:11:07.099Z,0.00
2022-07-31T02:12:09.829Z,0.00
2022-07-31T02:13:07.087Z,0.00
2022-07-31T02:14:07.099Z,0.00
2022-07-31T02:15:07.050Z,0.00
2022-07-31T02:16:07.108Z,0.00
2022-07-31T02:17:07.030Z,0.00
2022-07-31T02:18:07.043Z,0.00
2022-07-31T02:19:07.002Z,0.00
2022-07-31T02:20:07.133Z,0.00
2022-07-31T02:21:06.982Z,0.00
2022-07-31T02:22:07.081Z,0.00
2022-07-31T02:23:06.963Z,0.00
2022-07-31T02:24:07.044Z,0.00
2022-07-31T02:25:06.955Z,0.00
2022-07-31T02:26:06.960Z,0.00
2022-07-31T02:27:06.927Z,0.00
2022-07-31T02:28:07.934Z,0.00
2022-07-31T02:29:06.914Z,0.00
2022-07-31T02:30:08.015Z,0.00
2022-07-31T02:31:06.876Z,0.00
2022-07-31T02:32:06.997Z,0.00
2022-07-31T02:33:06.858Z,0.00
2022-07-31T02:34:07.279Z,0.00
2022-07-31T02:35:06.855Z,0.00
2022-07-31T02:36:06.875Z,0.00
2022-07-31T02:37:06.816Z,0.00
2022-07-31T02:38:06.859Z,0.00
2022-07-31T02:39:07.789Z,0.00
2022-07-31T02:40:06.889Z,0.00
2022-07-31T02:41:06.770Z,0.00
2022-07-31T02:42:07.220Z,0.00
2022-07-31T02:43:07.290Z,0.00
2022-07-31T02:44:06.810Z,0.00
2022-07-31T02:45:06.740Z,0.00
2022-07-31T02:46:06.729Z,0.00
2022-07-31T02:47:06.711Z,0.00
2022-07-31T02:48:06.710Z,0.00
2022-07-31T02:49:06.739Z,0.00
2022-07-31T02:50:06.735Z,0.00
2022-07-31T02:51:06.674Z,0.00
2022-07-31T02:52:07.343Z,0.00
2022-07-31T02:53:06.643Z,0.00
2022-07-31T02:54:06.785Z,0.00
2022-07-31T02:55:06.634Z,0.00
2022-07-31T02:56:06.668Z,0.00
2022-07-31T02:57:06.601Z,0.00
2022-07-31T02:58:06.634Z,0.00
2022-07-31T02:59:06.589Z,0.00
2022-07-31T03:00:06.654Z,0.00
2022-07-31T03:01:06.631Z,0.00
2022-07-31T03:02:07.022Z,0.00
2022-07-31T03:03:06.537Z,0.00
2022-07-31T03:04:06.589Z,0.00
2022-07-31T03:05:06.527Z,0.00
2022-07-31T03:06:06.567Z,0.00
2022-07-31T03:07:06.508Z,0.00
2022-07-31T03:08:06.686Z,0.00
2022-07-31T03:09:06.508Z,0.00
2022-07-31T03:10:06.546Z,0.00
2022-07-31T03:11:06.475Z,0.00
2022-07-31T03:12:06.605Z,0.00
2022-07-31T03:13:06.440Z,0.00
2022-07-31T03:14:06.543Z,0.00
2022-07-31T03:15:06.421Z,0.00
2022-07-31T03:16:06.391Z,0.00
2022-07-31T03:17:06.391Z,0.00
2022-07-31T03:18:11.110Z,0.00
2022-07-31T03:19:07.362Z,4.00
2022-07-31T03:20:06.521Z,4.00
2022-07-31T03:21:06.381Z,4.00
2022-07-31T03:22:06.748Z,0.00
2022-07-31T03:23:06.325Z,4.00
2022-07-31T03:24:06.444Z,4.00
2022-07-31T03:25:06.303Z,4.00
2022-07-31T03:26:06.354Z,4.00
2022-07-31T03:27:06.274Z,8.00
2022-07-31T03:28:06.273Z,8.00
2022-07-31T03:29:06.254Z,8.00
2022-07-31T03:30:07.265Z,8.00
2022-07-31T03:31:06.233Z,8.00
2022-07-31T03:32:06.488Z,8.00
2022-07-31T03:33:06.216Z,12.00
2022-07-31T03:34:06.256Z,16.00
2022-07-31T03:35:06.208Z,16.00
2022-07-31T03:36:06.287Z,20.00
2022-07-31T03:37:06.169Z,24.00
2022-07-31T03:38:38.574Z,24.00
2022-07-31T03:39:07.147Z,32.00
2022-07-31T03:40:06.147Z,36.00
2022-07-31T03:41:06.145Z,36.00
2022-07-31T03:42:06.404Z,44.00
2022-07-31T03:43:07.110Z,48.00
2022-07-31T03:44:06.150Z,52.00
2022-07-31T03:45:06.101Z,60.00
2022-07-31T03:46:06.060Z,64.00
2022-07-31T03:47:06.071Z,72.00
2022-07-31T03:48:06.069Z,84.00
2022-07-31T03:49:06.094Z,92.00
2022-07-31T03:50:06.042Z,108.00
2022-07-31T03:51:06.021Z,124.00
2022-07-31T03:52:11.491Z,140.00
2022-07-31T03:53:06.994Z,160.00
2022-07-31T03:54:06.010Z,184.00
2022-07-31T03:55:05.985Z,204.00
2022-07-31T03:56:06.029Z,228.00
2022-07-31T03:57:05.972Z,252.00
2022-07-31T03:58:06.911Z,284.00
2022-07-31T03:59:05.943Z,316.00
2022-07-31T04:00:06.676Z,344.00
2022-07-31T04:01:09.726Z,376.00
2022-07-31T04:02:06.944Z,404.00
2022-07-31T04:03:05.896Z,436.00
2022-07-31T04:04:05.936Z,468.00
2022-07-31T04:05:09.881Z,508.00
2022-07-31T04:06:05.908Z,568.00
2022-07-31T04:07:05.866Z,632.00
2022-07-31T04:08:05.879Z,684.00
2022-07-31T04:09:15.596Z,716.00
2022-07-31T04:10:06.828Z,728.00
2022-07-31T04:11:05.808Z,744.00
2022-07-31T04:12:06.271Z,788.00
2022-07-31T04:13:05.780Z,852.00
2022-07-31T04:14:05.782Z,924.00
2022-07-31T04:15:05.770Z,1008.00
2022-07-31T04:16:09.529Z,1088.00
2022-07-31T04:17:05.740Z,1172.00
2022-07-31T04:18:05.730Z,1256.00
2022-07-31T04:19:05.714Z,1328.00
2022-07-31T04:20:05.939Z,1360.00
2022-07-31T04:21:05.704Z,1352.00
2022-07-31T04:22:06.023Z,1336.00
2022-07-31T04:23:07.099Z,1336.00
2022-07-31T04:24:05.663Z,1360.00
2022-07-31T04:25:05.663Z,1400.00
2022-07-31T04:26:05.653Z,1448.00
2022-07-31T04:27:10.749Z,1508.00
2022-07-31T04:28:06.694Z,1568.00
2022-07-31T04:29:05.605Z,1632.00
2022-07-31T04:30:05.615Z,1696.00
2022-07-31T04:31:05.584Z,1764.00
2022-07-31T04:32:06.071Z,1816.00
2022-07-31T04:33:05.578Z,1884.00
2022-07-31T04:34:05.576Z,1940.00
2022-07-31T04:35:05.554Z,2024.00
2022-07-31T04:36:05.608Z,2144.00
2022-07-31T04:37:06.516Z,2328.00
2022-07-31T04:38:05.518Z,2508.00
2022-07-31T04:39:05.499Z,2660.00
2022-07-31T04:40:05.566Z,2720.00
2022-07-31T04:41:05.498Z,2724.00
2022-07-31T04:42:10.759Z,2684.00
2022-07-31T04:43:06.457Z,2664.00
2022-07-31T04:44:05.449Z,2688.00
2022-07-31T04:45:05.448Z,2716.00
2022-07-31T04:46:16.890Z,2772.00
2022-07-31T04:47:06.430Z,2832.00
2022-07-31T04:48:05.551Z,2884.00
2022-07-31T04:49:05.501Z,2904.00
2022-07-31T04:50:05.496Z,2920.00
2022-07-31T04:51:05.390Z,2908.00
2022-07-31T04:52:05.805Z,2864.00
2022-07-31T04:53:05.371Z,2804.00
2022-07-31T04:54:05.343Z,2712.00
2022-07-31T04:55:05.351Z,2552.00
2022-07-31T04:56:05.386Z,2368.00
2022-07-31T04:57:05.311Z,2232.00
2022-07-31T04:58:05.304Z,2184.00
2022-07-31T04:59:05.286Z,2220.00
2022-07-31T05:00:05.296Z,2308.00
2022-07-31T05:01:05.265Z,2476.00
2022-07-31T05:02:05.593Z,2684.00
2022-07-31T05:03:05.244Z,2832.00
2022-07-31T05:04:05.286Z,2908.00
2022-07-31T05:05:05.237Z,2932.00
2022-07-31T05:06:05.215Z,2952.00
2022-07-31T05:07:06.195Z,2988.00
2022-07-31T05:08:05.197Z,3032.00
2022-07-31T05:09:08.570Z,3096.00
2022-07-31T05:10:05.449Z,3192.00
2022-07-31T05:11:05.158Z,3224.00
2022-07-31T05:12:05.552Z,3200.00
2022-07-31T05:13:05.138Z,3184.00
2022-07-31T05:14:05.193Z,3272.00
2022-07-31T05:15:05.129Z,3492.00
2022-07-31T05:16:05.109Z,3760.00
2022-07-31T05:17:05.090Z,3928.00
2022-07-31T05:18:05.110Z,3984.00
2022-07-31T05:19:05.070Z,4060.00
2022-07-31T05:20:06.152Z,4088.00
2022-07-31T05:21:05.053Z,4000.00
2022-07-31T05:22:05.498Z,3816.00
2022-07-31T05:23:06.581Z,3648.00
2022-07-31T05:24:05.383Z,3480.00
2022-07-31T05:25:05.023Z,3472.00
2022-07-31T05:26:05.012Z,3664.00
2022-07-31T05:27:05.002Z,3952.00
2022-07-31T05:28:04.973Z,4236.00
2022-07-31T05:29:04.996Z,4480.00
2022-07-31T05:30:05.130Z,4652.00
2022-07-31T05:31:04.944Z,4640.00
2022-07-31T05:32:05.020Z,4448.00
2022-07-31T05:33:04.929Z,4252.00
2022-07-31T05:34:04.945Z,4176.00
2022-07-31T05:35:04.914Z,4100.00
2022-07-31T05:36:04.904Z,4084.00
2022-07-31T05:37:04.879Z,4188.00
2022-07-31T05:38:04.866Z,4388.00
2022-07-31T05:39:05.863Z,4724.00
2022-07-31T05:40:04.865Z,5140.00
2022-07-31T05:41:04.837Z,5484.00
2022-07-31T05:42:05.377Z,5760.00
2022-07-31T05:43:04.809Z,5972.00
2022-07-31T05:44:04.800Z,6112.00
2022-07-31T05:45:04.799Z,6288.00
2022-07-31T05:46:04.790Z,6620.00
2022-07-31T05:47:04.778Z,7124.00
2022-07-31T05:48:04.773Z,7732.00
2022-07-31T05:49:04.821Z,8460.00
2022-07-31T05:50:04.756Z,9292.00
2022-07-31T05:51:05.753Z,10112.00
2022-07-31T05:52:05.116Z,10916.00
2022-07-31T05:53:04.711Z,11540.00
2022-07-31T05:54:04.691Z,12016.00
2022-07-31T05:55:04.683Z,12088.00
2022-07-31T05:56:04.763Z,12076.00
2022-07-31T05:57:04.662Z,12220.00
2022-07-31T05:58:04.688Z,12364.00
2022-07-31T05:59:04.653Z,12584.00
2022-07-31T06:00:04.729Z,12976.00
2022-07-31T06:01:04.691Z,12816.00
2022-07-31T06:02:04.968Z,12544.00
2022-07-31T06:03:04.619Z,12600.00
2022-07-31T06:04:04.607Z,13076.00
2022-07-31T06:05:04.586Z,13188.00
2022-07-31T06:06:04.577Z,12720.00
2022-07-31T06:07:04.558Z,12460.00
2022-07-31T06:08:04.548Z,12252.00
2022-07-31T06:09:05.165Z,11964.00
2022-07-31T06:10:04.551Z,11620.00
2022-07-31T06:11:04.538Z,11276.00
2022-07-31T06:12:04.850Z,10876.00
2022-07-31T06:13:04.515Z,10608.00
2022-07-31T06:14:04.534Z,10504.00
2022-07-31T06:15:04.470Z,10652.00
2022-07-31T06:16:04.460Z,11124.00
2022-07-31T06:17:04.450Z,11896.00
2022-07-31T06:18:04.540Z,12956.00
2022-07-31T06:19:04.431Z,13788.00
2022-07-31T06:20:04.412Z,14932.00
2022-07-31T06:21:04.415Z,16140.00
2022-07-31T06:22:05.092Z,17216.00
2022-07-31T06:23:04.387Z,17664.00
2022-07-31T06:24:05.388Z,17600.00
2022-07-31T06:25:04.356Z,17248.00
2022-07-31T06:26:04.897Z,16992.00
2022-07-31T06:27:04.395Z,16864.00
2022-07-31T06:28:10.236Z,16928.00
2022-07-31T06:29:05.316Z,17312.00
2022-07-31T06:30:04.320Z,17696.00
2022-07-31T06:31:04.305Z,18112.00
2022-07-31T06:32:04.658Z,18400.00
2022-07-31T06:33:08.107Z,18464.00
2022-07-31T06:34:04.260Z,18304.00
2022-07-31T06:35:04.259Z,18112.00
2022-07-31T06:36:04.282Z,17920.00
2022-07-31T06:37:04.228Z,17760.00
2022-07-31T06:38:04.250Z,17600.00
2022-07-31T06:39:04.229Z,17408.00
2022-07-31T06:40:04.198Z,17184.00
2022-07-31T06:41:04.207Z,16864.00
2022-07-31T06:42:04.499Z,16448.00
2022-07-31T06:43:06.895Z,16004.00
2022-07-31T06:44:04.191Z,15700.00
2022-07-31T06:45:04.153Z,15488.00
2022-07-31T06:46:04.143Z,15388.00
2022-07-31T06:47:04.137Z,15380.00
2022-07-31T06:48:04.133Z,15512.00
2022-07-31T06:49:08.565Z,15816.00
2022-07-31T06:50:08.053Z,16352.00
2022-07-31T06:51:28.333Z,16928.00
2022-07-31T06:52:05.339Z,17728.00
2022-07-31T06:53:04.065Z,18624.00
2022-07-31T06:54:04.164Z,19904.00
2022-07-31T06:55:04.036Z,22624.00
2022-07-31T06:56:04.062Z,20544.00
2022-07-31T06:57:04.027Z,22496.00
2022-07-31T06:58:04.071Z,20864.00
2022-07-31T06:59:04.001Z,19584.00
2022-07-31T07:00:15.055Z,18592.00
2022-07-31T07:01:05.039Z,17984.00
2022-07-31T07:02:04.185Z,16512.00
2022-07-31T07:03:03.958Z,15720.00
2022-07-31T07:04:03.949Z,15292.00
2022-07-31T07:05:06.550Z,15068.00
2022-07-31T07:06:03.996Z,15096.00
2022-07-31T07:07:03.922Z,15304.00
2022-07-31T07:08:03.957Z,15576.00
2022-07-31T07:09:03.901Z,15832.00
2022-07-31T07:10:03.893Z,16076.00
2022-07-31T07:11:03.882Z,16276.00
2022-07-31T07:12:04.010Z,16416.00
2022-07-31T07:13:03.846Z,16576.00
2022-07-31T07:14:03.890Z,16544.00
2022-07-31T07:15:03.831Z,16424.00
2022-07-31T07:16:03.816Z,16268.00
2022-07-31T07:17:03.804Z,16104.00
2022-07-31T07:18:03.786Z,16020.00
2022-07-31T07:19:03.777Z,15992.00
2022-07-31T07:20:03.808Z,15928.00
2022-07-31T07:21:03.778Z,15836.00
2022-07-31T07:22:03.928Z,15700.00
2022-07-31T07:23:03.737Z,15456.00
2022-07-31T07:24:03.729Z,15048.00
2022-07-31T07:25:03.720Z,14600.00
2022-07-31T07:26:03.829Z,14168.00
2022-07-31T07:27:03.700Z,13872.00
2022-07-31T07:28:10.053Z,13868.00
2022-07-31T07:29:04.685Z,14112.00
2022-07-31T07:30:03.712Z,14424.00
2022-07-31T07:31:03.670Z,14744.00
2022-07-31T07:32:03.977Z,15016.00
2022-07-31T07:33:03.642Z,15184.00
2022-07-31T07:34:03.689Z,15172.00
2022-07-31T07:35:03.632Z,15000.00
2022-07-31T07:36:03.619Z,14728.00
2022-07-31T07:37:03.583Z,14416.00
2022-07-31T07:38:03.677Z,14144.00
2022-07-31T07:39:03.573Z,13876.00
2022-07-31T07:40:04.023Z,13600.00
2022-07-31T07:41:03.556Z,13364.00
2022-07-31T07:42:03.834Z,13180.00
2022-07-31T07:43:03.528Z,13108.00
2022-07-31T07:44:03.517Z,13136.00
2022-07-31T07:45:08.029Z,13268.00
2022-07-31T07:46:03.518Z,13432.00
2022-07-31T07:47:03.488Z,13536.00
2022-07-31T07:48:06.496Z,13540.00
2022-07-31T07:49:03.538Z,13424.00
2022-07-31T07:50:03.490Z,13224.00
2022-07-31T07:51:03.439Z,12960.00
2022-07-31T07:52:03.458Z,12692.00
2022-07-31T07:53:03.429Z,12412.00
2022-07-31T07:54:03.411Z,12212.00
2022-07-31T07:55:03.400Z,12224.00
2022-07-31T07:56:03.493Z,12488.00
2022-07-31T07:57:03.401Z,13036.00
2022-07-31T07:58:03.369Z,13872.00
2022-07-31T07:59:03.362Z,14920.00
2022-07-31T08:00:03.389Z,16080.00
2022-07-31T08:01:03.379Z,17408.00
2022-07-31T08:02:03.684Z,18656.00
2022-07-31T08:03:50.378Z,19872.00
2022-07-31T08:04:04.294Z,21088.00
2022-07-31T08:05:03.330Z,22368.00
2022-07-31T08:06:03.277Z,23488.00
2022-07-31T08:07:03.275Z,24672.00
2022-07-31T08:08:03.265Z,26240.00
2022-07-31T08:09:03.257Z,27392.00
2022-07-31T08:10:03.247Z,27712.00
2022-07-31T08:11:03.229Z,28256.00
2022-07-31T08:12:03.501Z,28576.00
2022-07-31T08:13:03.208Z,26528.00
2022-07-31T08:14:03.197Z,27840.00
2022-07-31T08:15:03.190Z,28224.00
2022-07-31T08:16:03.206Z,30304.00
2022-07-31T08:17:03.188Z,35008.00
2022-07-31T08:18:03.254Z,43008.00
2022-07-31T08:19:03.145Z,50656.00
2022-07-31T08:20:03.152Z,44992.00
2022-07-31T08:21:03.122Z,66112.00
2022-07-31T08:22:03.583Z,44576.00
2022-07-31T08:23:03.105Z,42048.00
2022-07-31T08:24:03.144Z,100000.00
2022-07-31T08:25:05.802Z,124288.00
2022-07-31T08:26:03.065Z,118144.00
2022-07-31T08:27:03.074Z,85984.00
2022-07-31T08:28:04.119Z,106112.00
2022-07-31T08:29:05.160Z,91040.00
2022-07-31T08:30:03.025Z,88192.00
2022-07-31T08:31:03.023Z,68864.00
2022-07-31T08:32:03.342Z,72512.00
2022-07-31T08:33:02.997Z,54016.00
2022-07-31T08:34:03.191Z,53472.00
2022-07-31T08:35:02.991Z,55328.00
2022-07-31T08:36:02.964Z,54080.00
2022-07-31T08:37:52.500Z,51744.00
2022-07-31T08:38:04.874Z,49888.00
2022-07-31T08:39:02.953Z,56416.00
2022-07-31T08:40:02.921Z,55520.00
2022-07-31T08:41:02.915Z,48064.00
2022-07-31T08:42:03.279Z,43808.00
2022-07-31T08:43:07.302Z,41600.00
2022-07-31T08:44:04.556Z,44224.00
2022-07-31T08:45:02.904Z,47424.00
2022-07-31T08:46:03.056Z,45056.00
2022-07-31T08:47:02.876Z,50144.00
2022-07-31T08:48:02.894Z,62496.00
2022-07-31T08:49:02.957Z,49824.00
2022-07-31T08:50:03.052Z,39264.00
2022-07-31T08:51:02.817Z,37056.00
2022-07-31T08:52:03.177Z,37152.00
2022-07-31T08:53:02.798Z,38688.00
2022-07-31T08:54:02.828Z,48032.00
2022-07-31T08:55:02.781Z,61664.00
2022-07-31T08:56:02.774Z,90336.00
2022-07-31T08:57:03.029Z,82336.00
2022-07-31T08:58:02.757Z,91456.00
2022-07-31T08:59:02.744Z,99616.00
2022-07-31T09:00:03.022Z,99936.00
2022-07-31T09:01:02.790Z,81408.00
2022-07-31T09:02:03.067Z,78560.00
2022-07-31T09:03:02.750Z,97568.00
2022-07-31T09:04:02.758Z,118368.00
2022-07-31T09:05:02.675Z,123744.00
2022-07-31T09:06:02.674Z,116384.00
2022-07-31T09:07:03.041Z,115680.00
2022-07-31T09:08:02.717Z,103776.00
2022-07-31T09:09:03.648Z,110912.00
2022-07-31T09:10:02.702Z,113696.00
2022-07-31T09:11:02.628Z,115840.00
2022-07-31T09:12:02.611Z,115520.00
2022-07-31T09:13:02.597Z,117632.00
2022-07-31T09:14:03.435Z,118784.00
2022-07-31T09:15:02.602Z,119488.00
2022-07-31T09:16:02.612Z,125856.00
2022-07-31T09:17:02.887Z,133184.00
2022-07-31T09:18:02.614Z,137792.00
2022-07-31T09:19:02.551Z,138048.00
2022-07-31T09:20:02.640Z,81792.00
2022-07-31T09:21:02.533Z,89120.00
2022-07-31T09:22:03.700Z,143008.00
2022-07-31T09:23:02.514Z,142528.00
2022-07-31T09:24:02.493Z,73728.00
2022-07-31T09:25:02.486Z,44576.00
2022-07-31T09:26:02.495Z,64704.00
2022-07-31T09:27:05.333Z,80864.00
2022-07-31T09:28:03.027Z,99680.00
2022-07-31T09:29:02.466Z,77024.00
2022-07-31T09:30:02.483Z,91872.00
2022-07-31T09:31:02.437Z,136480.00
2022-07-31T09:32:02.655Z,94688.00
2022-07-31T09:33:02.457Z,117984.00
2022-07-31T09:34:02.493Z,77600.00
2022-07-31T09:35:02.412Z,71488.00
2022-07-31T09:36:02.431Z,147360.00
2022-07-31T09:37:02.755Z,84704.00
2022-07-31T09:38:04.461Z,123232.00
2022-07-31T09:39:04.132Z,111136.00
2022-07-31T09:40:02.459Z,99040.00
2022-07-31T09:41:02.343Z,86016.00
2022-07-31T09:42:16.151Z,85952.00
2022-07-31T09:43:03.355Z,102656.00
2022-07-31T09:44:02.378Z,106528.00
2022-07-31T09:45:03.319Z,105312.00
2022-07-31T09:46:02.336Z,57216.00
2022-07-31T09:47:02.632Z,52576.00
2022-07-31T09:48:02.306Z,58080.00
2022-07-31T09:49:02.337Z,64000.00
2022-07-31T09:50:02.292Z,71328.00
2022-07-31T09:51:02.262Z,66336.00
2022-07-31T09:52:02.320Z,63296.00
2022-07-31T09:53:02.251Z,132288.00
2022-07-31T09:54:02.340Z,136672.00
2022-07-31T09:55:02.294Z,141024.00
2022-07-31T09:56:02.209Z,150528.00
2022-07-31T09:57:02.419Z,146464.00
2022-07-31T09:58:02.221Z,139072.00
2022-07-31T09:59:02.182Z,149504.00
2022-07-31T10:00:02.171Z,120928.00
2022-07-31T10:01:02.198Z,110656.00
2022-07-31T10:02:02.158Z,121920.00
2022-07-31T10:03:02.171Z,78976.00
2022-07-31T10:04:02.138Z,138496.00
2022-07-31T10:05:02.143Z,139264.00
2022-07-31T10:06:02.133Z,142208.00
2022-07-31T10:07:02.601Z,133248.00
2022-07-31T10:08:02.132Z,115936.00
2022-07-31T10:09:02.096Z,113184.00
2022-07-31T10:10:02.114Z,97408.00
2022-07-31T10:11:02.078Z,96256.00
2022-07-31T10:12:02.150Z,94976.00
2022-07-31T10:13:02.076Z,90528.00
2022-07-31T10:14:02.058Z,91776.00
2022-07-31T10:15:02.049Z,101024.00
2022-07-31T10:16:02.059Z,113056.00
2022-07-31T10:17:02.378Z,95104.00
2022-07-31T10:18:02.131Z,80576.00
2022-07-31T10:19:02.031Z,66400.00
2022-07-31T10:20:02.001Z,55552.00
2022-07-31T10:21:02.001Z,50496.00
2022-07-31T10:22:02.145Z,48192.00
2022-07-31T10:23:02.160Z,48704.00
2022-07-31T10:24:01.969Z,51712.00
2022-07-31T10:25:02.027Z,55680.00
2022-07-31T10:26:02.911Z,62624.00
2022-07-31T10:27:07.878Z,58304.00
2022-07-31T10:28:03.111Z,63744.00
2022-07-31T10:29:01.925Z,60096.00
2022-07-31T10:30:01.917Z,64064.00
2022-07-31T10:31:01.896Z,58432.00
2022-07-31T10:32:01.921Z,62880.00
2022-07-31T10:33:01.890Z,71456.00
2022-07-31T10:34:01.868Z,57600.00
2022-07-31T10:35:01.893Z,51360.00
2022-07-31T10:36:01.850Z,47712.00
2022-07-31T10:37:02.200Z,46848.00
2022-07-31T10:38:01.849Z,48160.00
2022-07-31T10:39:01.821Z,49632.00
2022-07-31T10:40:01.923Z,50048.00
2022-07-31T10:41:01.829Z,50592.00
2022-07-31T10:42:01.802Z,51424.00
2022-07-31T10:43:01.803Z,52512.00
2022-07-31T10:44:01.784Z,53088.00
2022-07-31T10:45:01.773Z,52768.00
2022-07-31T10:46:01.752Z,52352.00
2022-07-31T10:47:02.042Z,51840.00
2022-07-31T10:48:01.845Z,51008.00
2022-07-31T10:49:01.846Z,48864.00
2022-07-31T10:50:02.769Z,47616.00
2022-07-31T10:51:01.719Z,47360.00
2022-07-31T10:52:01.701Z,49440.00
2022-07-31T10:53:01.714Z,56320.00
2022-07-31T10:54:01.681Z,82752.00
2022-07-31T10:55:01.694Z,79072.00
2022-07-31T10:56:01.714Z,112736.00
2022-07-31T10:57:02.013Z,139936.00
2022-07-31T10:58:01.639Z,106400.00
2022-07-31T10:59:01.649Z,122944.00
2022-07-31T11:00:01.630Z,82592.00
2022-07-31T11:01:01.612Z,117952.00
2022-07-31T11:02:01.691Z,142880.00
2022-07-31T11:03:01.601Z,139232.00
2022-07-31T11:04:01.593Z,134784.00
2022-07-31T11:05:01.581Z,66912.00
2022-07-31T11:06:03.194Z,135616.00
2022-07-31T11:07:01.751Z,79360.00
2022-07-31T11:08:01.545Z,114080.00
2022-07-31T11:09:01.563Z,75904.00
2022-07-31T11:10:01.567Z,86528.00
2022-07-31T11:11:03.507Z,134336.00
2022-07-31T11:12:01.558Z,157024.00
2022-07-31T11:13:01.510Z,148320.00
2022-07-31T11:14:01.507Z,118432.00
2022-07-31T11:15:01.498Z,103552.00
2022-07-31T11:16:01.547Z,105344.00
2022-07-31T11:17:01.670Z,83488.00
2022-07-31T11:18:23.735Z,73600.00
2022-07-31T11:19:02.465Z,135808.00
2022-07-31T11:20:01.459Z,97888.00
2022-07-31T11:21:09.521Z,77376.00
2022-07-31T11:22:30.828Z,166240.00
2022-07-31T11:23:02.432Z,64000.00
2022-07-31T11:24:03.962Z,148768.00
2022-07-31T11:25:01.393Z,113728.00
2022-07-31T11:26:01.400Z,130624.00
2022-07-31T11:27:01.499Z,58944.00
2022-07-31T11:28:01.373Z,113472.00
2022-07-31T11:29:59.045Z,100640.00
2022-07-31T11:30:06.683Z,148896.00
2022-07-31T11:31:02.347Z,109984.00
2022-07-31T11:32:01.356Z,107712.00
2022-07-31T11:33:01.335Z,142880.00
2022-07-31T11:34:01.326Z,135840.00
2022-07-31T11:35:01.315Z,85856.00
2022-07-31T11:36:01.325Z,156288.00
2022-07-31T11:37:01.297Z,153856.00
2022-07-31T11:38:01.326Z,136128.00
2022-07-31T11:39:01.279Z,134816.00
2022-07-31T11:40:01.289Z,120928.00
2022-07-31T11:41:01.270Z,145920.00
2022-07-31T11:42:01.271Z,148320.00
2022-07-31T11:44:03.091Z,136800.00
2022-07-31T12:32:24.591Z,119264.00
2022-07-31T12:33:24.553Z,63008.00
2022-07-31T12:34:24.542Z,45504.00
2022-07-31T12:35:24.571Z,47520.00
2022-07-31T12:36:25.525Z,47104.00
2022-07-31T12:37:24.524Z,50464.00
2022-07-31T12:38:40.781Z,54464.00
2022-07-31T12:39:25.514Z,61312.00
2022-07-31T12:40:25.503Z,63712.00
2022-07-31T12:41:24.496Z,105248.00
2022-07-31T12:42:30.603Z,113344.00
2022-07-31T12:43:25.476Z,134176.00
2022-07-31T12:44:24.456Z,148384.00
2022-07-31T12:45:24.448Z,147520.00
2022-07-31T12:46:24.450Z,147648.00
2022-07-31T12:47:26.194Z,146176.00
2022-07-31T12:48:24.418Z,59264.00
2022-07-31T12:49:24.463Z,105024.00
2022-07-31T12:50:24.412Z,79872.00
2022-07-31T12:51:44.064Z,84576.00
2022-07-31T12:52:25.394Z,81440.00
2022-07-31T12:53:24.399Z,99680.00
2022-07-31T12:54:24.371Z,128928.00
2022-07-31T12:55:24.361Z,126656.00
2022-07-31T12:56:24.380Z,70592.00
2022-07-31T12:57:24.341Z,63456.00
2022-07-31T12:58:24.342Z,68288.00
2022-07-31T12:59:24.334Z,129536.00
2022-07-31T13:00:24.390Z,92544.00
2022-07-31T13:01:24.340Z,66848.00